Terminal Aerodrome Forecast
Issued by NWS Brownsville, TX

Home | Current Version | Previous Version | Text Only | Print | Product List | Glossary On
Versions: 1 2 3 4 5 6 7 8 9 10 11 12 13 14
256
FTUS44 KBRO 241147 CCA
TAFMFE
TAF COR
KMFE 241147Z 2412/2512 11008KT P6SM FEW020 SCT027
      TEMPO 2412/2415 BKN026
     FM241500 14010KT P6SM SCT040
     FM241900 13012G18KT P6SM VCTS BKN040CB
     FM242300 12008KT P6SM SCT030=

USA.gov is the U.S. government's official web portal to all federal, state and local government web resources and services.